createdAt,value
2022-12-08T11:36:56.057Z,3064
2022-12-08T11:47:34.041Z,3414
2022-12-08T11:52:53.400Z,3616
2022-12-08T12:03:31.364Z,3861
2022-12-08T12:08:50.759Z,3236
2022-12-08T12:19:33.674Z,2042
2022-12-08T12:24:47.876Z,2008
2022-12-08T12:30:07.990Z,1925
2022-12-08T12:35:27.418Z,2161
2022-12-08T12:46:04.960Z,2630
2022-12-08T12:51:24.687Z,3050
2022-12-08T12:56:43.765Z,2155
2022-12-08T13:02:02.946Z,1653
2022-12-08T13:07:22.366Z,1655
2022-12-08T13:12:41.251Z,1820
2022-12-08T13:18:01.028Z,2019
2022-12-08T13:23:20.699Z,2278
2022-12-08T13:28:40.395Z,2278
2022-12-08T13:33:59.609Z,1405
2022-12-08T13:39:18.520Z,954
2022-12-08T14:00:35.379Z,1374
2022-12-08T14:06:11.440Z,1419
2022-12-08T14:11:14.190Z,1554
2022-12-08T14:16:33.236Z,1477
2022-12-08T14:21:52.932Z,1122
2022-12-08T14:27:12.622Z,993
2022-12-08T14:32:31.579Z,1088
2022-12-08T14:37:50.625Z,999
2022-12-08T14:43:09.657Z,958
2022-12-08T14:48:28.848Z,913
2022-12-08T14:53:48.780Z,670
2022-12-08T14:59:07.118Z,504
2022-12-08T15:04:26.386Z,407
2022-12-08T15:10:10.534Z,290
2022-12-08T15:15:30.151Z,185
2022-12-08T15:20:49.061Z,121
2022-12-08T15:26:07.895Z,82
2022-12-08T15:31:27.669Z,51
2022-12-08T15:36:46.908Z,24
2022-12-08T15:42:05.975Z,11
2022-12-08T15:47:25.239Z,2
2022-12-08T15:52:44.848Z,0
2022-12-08T15:58:51.605Z,0
2022-12-08T16:03:59.685Z,0
2022-12-08T16:08:51.961Z,0
2022-12-08T16:14:23.501Z,0
2022-12-08T16:19:21.115Z,0
2022-12-08T16:24:40.842Z,0
2022-12-08T16:30:00.592Z,0
2022-12-08T16:35:20.306Z,0
2022-12-08T16:40:39.204Z,0
2022-12-08T16:45:58.357Z,0
2022-12-08T16:51:20.823Z,0
2022-12-08T16:56:37.802Z,0
2022-12-08T17:01:56.621Z,0
2022-12-08T17:07:15.448Z,0
2022-12-08T17:12:34.900Z,0
2022-12-08T17:17:54.614Z,0
2022-12-08T17:23:13.422Z,0
2022-12-08T17:28:58.651Z,0
2022-12-08T17:33:52.198Z,0
2022-12-08T17:39:16.508Z,0
2022-12-08T17:44:30.734Z,0
2022-12-08T17:49:50.368Z,0
2022-12-08T17:55:10.048Z,0
2022-12-08T18:00:29.484Z,0
2022-12-08T18:05:48.450Z,0
2022-12-08T18:11:17.061Z,0
2022-12-08T18:16:27.946Z,0
2022-12-08T18:21:47.703Z,0
2022-12-08T18:27:07.741Z,0
2022-12-08T18:32:26.941Z,0
2022-12-08T18:37:46.159Z,0
2022-12-08T18:43:05.545Z,0
2022-12-08T18:48:24.948Z,0
2022-12-08T18:53:44.320Z,0
2022-12-08T18:59:03.990Z,0
2022-12-08T19:04:29.623Z,0
2022-12-08T19:09:40.987Z,0
2022-12-08T19:15:00.521Z,0
2022-12-08T19:20:19.811Z,0
2022-12-08T19:25:39.376Z,0
2022-12-08T19:30:58.200Z,0
2022-12-08T19:36:17.418Z,0
2022-12-08T19:41:36.288Z,0
2022-12-08T19:46:55.816Z,0
2022-12-08T19:52:14.804Z,0
2022-12-08T19:57:34.050Z,0
2022-12-08T20:02:53.160Z,0
2022-12-08T20:08:12.808Z,0
2022-12-08T20:13:32.331Z,0
2022-12-08T20:18:51.796Z,0
2022-12-08T20:29:30.802Z,0
2022-12-08T20:34:50.318Z,0
2022-12-08T20:40:09.578Z,0
2022-12-08T20:56:08.126Z,0
2022-12-08T21:01:27.204Z,0
2022-12-08T21:06:44.346Z,0
2022-12-08T21:17:23.291Z,0
2022-12-08T21:22:42.290Z,0
2022-12-08T21:28:01.865Z,0
2022-12-08T21:33:20.823Z,0
2022-12-08T21:38:40.550Z,0
2022-12-08T21:43:59.841Z,0
2022-12-08T21:49:19.283Z,0
2022-12-08T21:54:38.732Z,0
2022-12-08T21:59:58.299Z,0
